TimeEST,TemperatureF,Dew PointF,Humidity,Sea Level PressureIn,VisibilityMPH,Wind Direction,Wind SpeedMPH,Gust SpeedMPH,PrecipitationIn,Events,Conditions,WindDirDegrees,DateUTC
12:53 AM,61.0,50.0,67,30.24,10.0,Calm,Calm,-,N/A,,Partly Cloudy,0,2013-02-02 05:53:00
1:53 AM,60.1,50.0,69,30.23,10.0,NNW,4.6,-,N/A,,Partly Cloudy,330,2013-02-02 06:53:00
2:53 AM,60.1,50.0,69,30.22,10.0,Calm,Calm,-,N/A,,Partly Cloudy,0,2013-02-02 07:53:00
3:53 AM,59.0,48.9,69,30.22,10.0,NNW,5.8,-,N/A,,Partly Cloudy,340,2013-02-02 08:53:00
4:53 AM,59.0,48.0,67,30.22,10.0,North,5.8,-,N/A,,Partly Cloudy,350,2013-02-02 09:53:00
5:53 AM,59.0,44.1,58,30.24,10.0,NNW,5.8,-,N/A,,Partly Cloudy,340,2013-02-02 10:53:00
6:53 AM,59.0,39.0,48,30.25,10.0,Calm,Calm,-,N/A,,Partly Cloudy,0,2013-02-02 11:53:00
7:53 AM,60.1,36.0,41,30.27,10.0,North,8.1,-,N/A,,Partly Cloudy,350,2013-02-02 12:53:00
8:53 AM,63.0,37.0,38,30.27,10.0,North,6.9,-,N/A,,Partly Cloudy,10,2013-02-02 13:53:00
9:53 AM,68.0,41.0,37,30.27,10.0,North,5.8,-,N/A,,Partly Cloudy,360,2013-02-02 14:53:00
10:53 AM,73.0,48.0,41,30.25,10.0,East,6.9,-,N/A,,Partly Cloudy,90,2013-02-02 15:53:00
11:53 AM,73.0,51.1,46,30.22,10.0,East,13.8,-,N/A,,Scattered Clouds,80,2013-02-02 16:53:00
12:53 PM,73.9,52.0,46,30.19,10.0,East,12.7,18.4,N/A,,Scattered Clouds,80,2013-02-02 17:53:00
1:53 PM,73.9,53.1,48,30.17,10.0,ENE,11.5,-,N/A,,Scattered Clouds,70,2013-02-02 18:53:00
2:53 PM,72.0,52.0,49,30.16,10.0,East,12.7,17.3,N/A,,Scattered Clouds,80,2013-02-02 19:53:00
3:53 PM,73.9,53.1,48,30.15,10.0,ENE,9.2,-,N/A,,Scattered Clouds,60,2013-02-02 20:53:00
4:53 PM,71.1,52.0,51,30.15,10.0,East,10.4,-,N/A,,Scattered Clouds,90,2013-02-02 21:53:00
5:53 PM,70.0,53.1,55,30.14,10.0,East,8.1,-,N/A,,Scattered Clouds,90,2013-02-02 22:53:00
6:53 PM,69.1,54.0,58,30.15,10.0,NE,6.9,-,N/A,,Scattered Clouds,50,2013-02-02 23:53:00
7:53 PM,68.0,54.0,61,30.16,10.0,Calm,Calm,-,N/A,,Partly Cloudy,0,2013-02-03 00:53:00
8:53 PM,68.0,54.0,61,30.17,10.0,NNE,3.5,-,N/A,,Scattered Clouds,20,2013-02-03 01:53:00
9:53 PM,66.9,54.0,63,30.17,10.0,NNE,3.5,-,N/A,,Scattered Clouds,20,2013-02-03 02:53:00
10:53 PM,64.9,54.0,68,30.16,10.0,Calm,Calm,-,N/A,,Partly Cloudy,0,2013-02-03 03:53:00
11:53 PM,68.0,55.9,65,30.13,10.0,East,4.6,-,N/A,,Partly Cloudy,90,2013-02-03 04:53:00